Aviation Digital Data Service (ADDS)

Output produced by METARs form (1916 UTC 18 June 2019)
found at http://www.aviationweather.gov/metar/data/
 
TAF RJSK 181718Z 1818/2000 14004KT 9999 FEW020 BKN040 
     TEMPO 1818/1821 3000 BR 
     BECMG 1900/1902 26010KT 
     BECMG 1909/1912 14004KT
       
TAF RJSA 181714Z 1818/2000 20004KT 9999 FEW040 
     BECMG 1904/1906 03005KT 
     BECMG 1909/1912 20005KT 
     BECMG 1921/2000 03005KT
       
TAF RJEC 181713Z 1818/2000 18006KT 9999 FEW030 BKN050 
     TEMPO 1903/1909 4000 TSRA BR FEW008 BKN030 FEW030CB 
     BECMG 1906/1909 33005KT 
     TEMPO 1909/1912 4000 SHRA BR FEW008 BKN030 FEW030CB 
     BECMG 1912/1915 18006KT
       
RJFF 181900Z AUTO 17003KT 9999 NCD 20/15 Q1008 NOSIG RMK A2977
TAF RJFF 181705Z 1818/2000 15006KT 9999 FEW030 
     BECMG 1901/1903 36006KT 
     BECMG 1909/1912 16004KT
       
TAF RJSF 181715Z 1818/2000 14004KT 9999 FEW010 SCT020 BKN040 
     TEMPO 1818/1821 1500 BR FEW001 BKN003 BKN005 
     BECMG 1821/1823 36006KT 
     TEMPO 1906/1909 3000 TSRA BR FEW005 BKN008 BKN020 FEW020CB 
     TEMPO 1909/1912 3000 SHRA BR FEW005 BKN008 BKN020 
     TEMPO 1915/2000 1500 -SHRA BR FEW001 BKN003 BKN005
       
ROTM 181856Z 22018G25KT 10SM BKN012 BKN025 27/26 A2979 RMK AO2 SLP072 T02720261 PNO $
TAF ROTM 1815/1915 23012KT 9999 SCT008 BKN015 BKN040 QNH2977INS 
     TEMPO 1816/1818 8000 SHRA BR 
     FM182100 24012G20KT 9000 -SHRA BR BKN008 BKN012 OVC025 QNH2975INS 
     TEMPO 1903/1908 3200 TSRA BKN005 BKN010 OVC015 
     BECMG 1809/1812 26010G18KT 8000 -SHRA BR SCT010 BKN020 BKN030 QNH2972INS
T28/1803Z T24/1819Z
       
TAF RJCH 181718Z 1818/2000 04003KT 9999 -SHRA FEW008 BKN030 
     TEMPO 1821/1900 FEW008 BKN030 FEW030CB 
     BECMG 1823/1901 14010KT 
     TEMPO 1900/1906 4000 TSRA BR BKN008 BKN030 FEW030CB 
     TEMPO 1906/1912 4000 SHRA BR BKN008 BKN030 FEW030CB 
     TEMPO 1915/1921 3000 BR FEW003 BKN006
       
TAF RJOA 181705Z 1818/2000 32004KT 9999 FEW020 SCT045 
     BECMG 1903/1905 17005KT 
     BECMG 1912/1915 32004KT
       
RJAH 181906Z 00000KT 8000 FEW030 BKN100 18/17 Q1009 RMK 1CU030 5AC100 A2980 VIS N-NE 5KM
TAF RJAH 181710Z 1818/2000 06004KT 9999 FEW015 SCT030 
     BECMG 1823/1901 20005KT 
     BECMG 1903/1905 09010KT 
     TEMPO 1909/1912 3000 TSRA BR FEW005 BKN008 FEW015CB 
     TEMPO 1912/1915 3000 SHRA BR FEW002 BKN005 
     TEMPO 1921/2000 3000 -SHRA BR FEW005 BKN008
       
TAF ROIG 181708Z 1818/2000 21012KT 9999 FEW008 SCT015 
     TEMPO 1818/1822 FEW003 BKN005
       
RJOI 181755Z 31003KT 9999 FEW030 BKN070 BKN200 20/14 A2980 RMK SLP090 T02000144 10222 20194 56014
TAF RJOI 1813/1913 30005KT 9999 FEW030 SCT050 SCT160 OVC240 542508 QNH2981INS 
     FM181400 30005KT 9999 FEW030 BKN050 BKN140 OVC240 542508 QNH2977INS 
     FM182000 34005KT 9999 FEW030 SCT050 BKN120 BKN240 542508 QNH2976INS 
     BECMG 1900/1901 04006KT 9999 FEW030 SCT120 SCT240 500000 QNH2972INS 
     FM190300 15006KT 9999 FEW030 FEW120 SCT220 QNH2966INS 
     FM190900 18005KT 9999 FEW030 FEW100 SCT200 QNH2967INS 
     BECMG 1911/1912 31005KT FEW030 SCT200 QNH2969INS T17/1820Z T27/1907Z
       
RJAW 181800Z 20005KT 9999 FEW010 BKN120 26/24 Q1011 RMK 1CU010 5AC120 A2988
TAF RJOC 181706Z 1818/2000 25005KT 9999 FEW020 SCT050 
     BECMG 1903/1905 06006KT 
     BECMG 1912/1915 17004KT
       
RODN 181906Z AUTO 21013KT 10SM OVC007 27/26 A2977 RMK AO2 CIG 004 RWY05 SLP086 $
TAF AMD RODN 181835Z 1818/1922 20012KT 9999 OVC007 QNH2976INS 
     TEMPO 1818/1823 BKN005 
     BECMG 1823/1901 23012G18KT 9999 BKN005 QNH2976INS 
     BECMG 1910/1912 25015KT 9999 SCT008 BKN015 QNH2974INS TX30/1906Z TN24/1821Z
       
TAF RJFK 181705Z 1818/2000 03005KT 8000 -SHRA FEW005 SCT010 BKN025 
     BECMG 1819/1821 09008KT 
     TEMPO 1819/1900 4000 SHRA BR 
     BECMG 1909/1912 34003KT
       
RJBB 181900Z AUTO 10003KT 9999 NCD 20/18 Q1009 NOSIG
TAF RJBB 181705Z 1818/2000 18004KT 9999 FEW020 SCT030
       
RJKI 181900Z AUTO 22009KT 190V260 9000 -RA FEW008 BKN048 BKN050 25/25 Q1006
RJTK 181340Z 17008KT 9999 FEW030 22/17 Q1010 RMK 1CU030 A2984
RORK 181900Z AUTO 22007KT 9999 FEW007 BKN170 25/24 Q1009
RJFR 181900Z 05004KT 360V070 9999 FEW015 BKN/// 20/16 Q1008
TAF RJFR 181706Z 1818/2000 06007KT 9999 FEW015 
     BECMG 1823/1901 12004KT 
     BECMG 1906/1909 07008KT
       
TAF RJOK 181709Z 1818/2000 35005KT 9999 FEW020 BKN035 
     BECMG 1822/1900 19005KT 
     BECMG 1912/1915 34006KT 
     BECMG 1921/2000 16005KT
       
RJNK 181900Z VRB01KT 9999 FEW030 BKN080 20/16 Q1008
TAF RJNK 181705Z 1818/2000 22005KT 9999 FEW020 BKN060 
     BECMG 1902/1904 30010KT 
     BECMG 1906/1909 01006KT 
     BECMG 1912/1915 22004KT
       
TAF RJFT 181705Z 1818/2000 06007KT 9999 FEW025 SCT050
       
TAF RJCK 181716Z 1818/2000 18010KT 9999 FEW008 BKN015 
     TEMPO 1818/1822 0700 FG VV001 
     BECMG 1906/1909 3000 BR FEW002 BKN005 
     TEMPO 1909/1921 0500 FG VV001 
     BECMG 1915/1918 01004KT 
     TEMPO 1921/2000 0700 FG VV001
       
TAF RJOM 181706Z 1818/2000 12004KT 9999 FEW030 
     BECMG 1822/1900 35009KT 
     BECMG 1906/1909 12005KT 
     BECMG 1921/2000 32006KT
       
TAF RJCM 181720Z 1818/2000 19006KT 9999 FEW015 BKN030 
     TEMPO 1900/1903 FEW008 BKN030 FEW030CB 
     BECMG 1902/1904 06010KT 
     TEMPO 1903/1909 4000 TSRA BR BKN008 BKN030 FEW030CB 
     TEMPO 1909/1912 4000 SHRA BR BKN008 BKN030 FEW030CB 
     BECMG 1909/1912 19005KT
       
RJOH 181900Z 18004KT 9999 FEW100 18/16 Q1008
TAF RJOH 181707Z 1818/2000 20006KT 9999 FEW015 SCT050 
     BECMG 1903/1905 05006KT 
     BECMG 1912/1915 18004KT
       
ROMD 181900Z AUTO 22007KT 9999 FEW008 SCT180 25/24 Q1009
RJSM 181900Z 30003KT 9999 FEW008 10/10 Q1009
TAF RJFM 181706Z 1818/2000 32005KT 8000 -SHRA FEW008 SCT010 BKN015 
     BECMG 1820/1822 05015KT 
     TEMPO 1820/1900 4000 SHRA BR FEW003 SCT005 BKN008 
     BECMG 1912/1915 29006KT
       
TAF RJFU 181705Z 1818/2000 14006KT 9999 FEW020 SCT045 
     BECMG 1902/1904 27008KT 
     BECMG 1912/1915 14004KT
       
ROAH 181900Z 21013KT 170V240 9999 FEW006 BKN008 BKN140 27/26 Q1007 RMK 1ST006 6ST008 7AC140 A2976
TAF ROAH 181706Z 1818/2000 21014KT 9999 FEW008 BKN015 
     TEMPO 1818/1900 FEW005 BKN008 
     TEMPO 1912/1918 4000 SHRA FEW005 BKN008 FEW020CB 
     TEMPO 1918/2000 2000 +TSRA FEW005 BKN008 SCT020CB
       
RJCC 181900Z 21002KT 9999 FEW015 SCT150 09/08 Q1009 RMK 1ST015 3AC150 A2981
TAF RJCC 181706Z 1818/2000 17006KT 9999 FEW008 SCT015 
     TEMPO 1903/1909 FEW008 BKN030 FEW030CB 
     TEMPO 1909/1912 4000 -SHRA BR BKN005 BKN030 FEW030CB 
     TEMPO 1912/2000 2000 BR FEW002 BKN005
       
RJAA 181900Z 12002KT 9999 FEW030 SCT/// 16/16 Q1009 NOSIG RMK 1CU030 A2981
TAF RJAA 181709Z 1818/2000 16004KT 9999 FEW030 
     BECMG 1900/1902 26005KT 
     BECMG 1903/1905 16006KT 
     TEMPO 1906/1909 -TSRA FEW015CB FEW020 BKN040
       
TAF RJSN 181706Z 1818/2000 16006KT 6000 -SHRA FEW008 BKN015 
     TEMPO 1818/1821 4000 SHRA BR 
     TEMPO 1902/1906 4000 TSRA BR FEW005 BKN008 FEW020CB 
     BECMG 1904/1906 20012KT 
     BECMG 1909/1912 18004KT
       
TAF RJCB 181712Z 1818/2000 02005KT 9999 FEW005 SCT015 
     BECMG 1822/1900 15015KT 
     BECMG 1909/1912 34003KT 
     TEMPO 1912/1915 1500 BR FEW001 BKN003 
     TEMPO 1915/2000 0700 FG VV001
       
TAF RJFO 181708Z 1818/2000 30003KT 9999 FEW020 SCT040 
     BECMG 1900/1902 14005KT
       
TAF RJOB 181708Z 1818/2000 07004KT 9999 FEW020 SCT045
       
TAF RJOO 181707Z 1818/2000 32004KT 9999 FEW020 SCT040 
     BECMG 1900/1902 22006KT 
     BECMG 1909/1912 26005KT
       
RJFS 181900Z 05004KT 9999 FEW020 SCT080 BKN150 19/16 Q1008
TAF RJFS 181705Z 1818/2000 03006KT 9999 FEW030 
     BECMG 1902/1904 22009KT 
     BECMG 1918/1921 03003KT
       
TAF RJSS 181707Z 1818/2000 34004KT 9999 FEW020 SCT040 
     BECMG 1823/1901 12006KT 
     TEMPO 1904/1909 4000 SHRA BR 
     BECMG 1909/1912 34004KT
       
TAF RJOT 181706Z 1818/2000 15005KT 9999 FEW025 SCT050 
     BECMG 1921/2000 20005KT
       
RJOS 181900Z 29005KT 9999 FEW008 BKN010 BKN/// 20/19 Q1009
RJTT 181900Z 27006KT 9999 FEW030 BKN/// 21/17 Q1008 NOSIG RMK 1CU030 A2979
TAF RJTT 181707Z 1818/2000 31005KT 9999 FEW010 SCT020 
     BECMG 1900/1902 15010KT 
     BECMG 1921/2000 09004KT
       
TAF RJNT 181705Z 1818/2000 24005KT 9999 FEW020 BKN040 
     BECMG 1823/1901 34005KT 
     BECMG 1912/1915 18004KT 
     BECMG 1921/2000 30005KT
       
RJTU 181635Z 02005KT 9999 FEW008 SCT080 BKN130 19/18 Q1010 RMK 1ST008 4AC080 6AC130 A2984
RJTY 181911Z AUTO 02006KT 10SM OVC008 19/17 A2986 RMK AO2 OVC V BKN CIG 007 RWY18 SLP110 FZRANO $
TAF AMD RJTY 181900Z 1819/1922 VRB06KT 9000 BR SCT008 BKN015 QNH2970INS 
     TEMPO 1819/1903 BKN008 
     BECMG 1903/1904 16009KT 8000 -SHRA VCTS BKN030CB QNH2964INS 
     TEMPO 1905/1910 16010G15KT 6000 -TSRA BKN025CB TX26/1906Z TN17/1821Z
       
ROYN 181900Z AUTO 19011KT 9999 FEW010 28/27 Q1007
RORY 181900Z AUTO 22011KT 180V240 9999 FEW011 SCT019 BKN060 //////TCU 26/26 Q1007